sensor_id;sensor_type;location;lat;lon;timestamp;temperature;humidity
18998;DHT22;9632;51.018;4.284;2022-09-09T00:00:38;17.70;99.90
18998;DHT22;9632;51.018;4.284;2022-09-09T00:03:27;17.70;99.90
18998;DHT22;9632;51.018;4.284;2022-09-09T00:06:03;17.70;99.90
18998;DHT22;9632;51.018;4.284;2022-09-09T00:08:56;17.70;99.90
18998;DHT22;9632;51.018;4.284;2022-09-09T00:11:30;17.70;99.90
18998;DHT22;9632;51.018;4.284;2022-09-09T00:14:00;17.70;99.90
18998;DHT22;9632;51.018;4.284;2022-09-09T00:16:32;17.70;99.90
18998;DHT22;9632;51.018;4.284;2022-09-09T00:21:33;17.60;99.90
18998;DHT22;9632;51.018;4.284;2022-09-09T00:24:04;17.50;99.90
18998;DHT22;9632;51.018;4.284;2022-09-09T00:27:22;17.50;99.90
18998;DHT22;9632;51.018;4.284;2022-09-09T00:29:38;17.50;99.90
18998;DHT22;9632;51.018;4.284;2022-09-09T00:32:16;17.50;99.90
18998;DHT22;9632;51.018;4.284;2022-09-09T00:37:13;17.50;99.90
18998;DHT22;9632;51.018;4.284;2022-09-09T00:39:46;17.50;99.90
18998;DHT22;9632;51.018;4.284;2022-09-09T00:47:43;17.50;99.90
18998;DHT22;9632;51.018;4.284;2022-09-09T00:50:17;17.50;99.90
18998;DHT22;9632;51.018;4.284;2022-09-09T00:53:11;17.50;99.90
18998;DHT22;9632;51.018;4.284;2022-09-09T00:58:16;17.50;99.90
18998;DHT22;9632;51.018;4.284;2022-09-09T01:00:43;17.50;99.90
18998;DHT22;9632;51.018;4.284;2022-09-09T01:03:25;17.40;99.90
18998;DHT22;9632;51.018;4.284;2022-09-09T01:06:15;17.40;99.90
18998;DHT22;9632;51.018;4.284;2022-09-09T01:11:25;17.40;99.90
18998;DHT22;9632;51.018;4.284;2022-09-09T01:27:51;17.20;99.90
18998;DHT22;9632;51.018;4.284;2022-09-09T01:30:18;17.30;99.90
18998;DHT22;9632;51.018;4.284;2022-09-09T01:32:46;17.30;99.90
18998;DHT22;9632;51.018;4.284;2022-09-09T01:38:28;17.30;99.90
18998;DHT22;9632;51.018;4.284;2022-09-09T01:40:55;17.30;99.90
18998;DHT22;9632;51.018;4.284;2022-09-09T01:43:22;17.30;99.90
18998;DHT22;9632;51.018;4.284;2022-09-09T01:45:52;17.20;99.90
18998;DHT22;9632;51.018;4.284;2022-09-09T01:48:19;17.20;99.90
18998;DHT22;9632;51.018;4.284;2022-09-09T01:50:45;17.20;99.90
18998;DHT22;9632;51.018;4.284;2022-09-09T02:02:19;17.00;99.90
18998;DHT22;9632;51.018;4.284;2022-09-09T02:04:52;17.00;99.90
18998;DHT22;9632;51.018;4.284;2022-09-09T02:07:55;17.00;99.90
18998;DHT22;9632;51.018;4.284;2022-09-09T02:13:20;17.00;99.90
18998;DHT22;9632;51.018;4.284;2022-09-09T02:15:55;17.10;99.90
18998;DHT22;9632;51.018;4.284;2022-09-09T02:21:02;17.00;99.90
18998;DHT22;9632;51.018;4.284;2022-09-09T02:23:29;17.00;99.90
18998;DHT22;9632;51.018;4.284;2022-09-09T02:25:58;17.00;99.90
18998;DHT22;9632;51.018;4.284;2022-09-09T02:28:25;16.90;99.90
18998;DHT22;9632;51.018;4.284;2022-09-09T02:30:52;16.90;99.90
18998;DHT22;9632;51.018;4.284;2022-09-09T02:33:26;16.90;99.90
18998;DHT22;9632;51.018;4.284;2022-09-09T02:35:53;16.90;99.90
18998;DHT22;9632;51.018;4.284;2022-09-09T02:38:21;16.80;99.90
18998;DHT22;9632;51.018;4.284;2022-09-09T02:40:47;16.90;99.90
18998;DHT22;9632;51.018;4.284;2022-09-09T02:43:15;16.90;99.90
18998;DHT22;9632;51.018;4.284;2022-09-09T02:45:49;16.90;99.90
18998;DHT22;9632;51.018;4.284;2022-09-09T02:48:33;16.90;99.90
18998;DHT22;9632;51.018;4.284;2022-09-09T02:51:24;16.90;99.90
18998;DHT22;9632;51.018;4.284;2022-09-09T02:53:59;16.90;99.90
18998;DHT22;9632;51.018;4.284;2022-09-09T02:56:31;16.90;99.90
18998;DHT22;9632;51.018;4.284;2022-09-09T02:59:03;17.00;99.90
18998;DHT22;9632;51.018;4.284;2022-09-09T03:01:29;16.90;99.90
18998;DHT22;9632;51.018;4.284;2022-09-09T03:03:55;16.90;99.90
18998;DHT22;9632;51.018;4.284;2022-09-09T03:06:20;17.00;99.90
18998;DHT22;9632;51.018;4.284;2022-09-09T03:08:47;17.00;99.90
18998;DHT22;9632;51.018;4.284;2022-09-09T03:11:15;16.90;99.90
18998;DHT22;9632;51.018;4.284;2022-09-09T03:13:41;16.90;99.90
18998;DHT22;9632;51.018;4.284;2022-09-09T03:16:07;16.90;99.90
18998;DHT22;9632;51.018;4.284;2022-09-09T03:18:32;17.00;99.90
18998;DHT22;9632;51.018;4.284;2022-09-09T03:21:00;17.00;99.90
18998;DHT22;9632;51.018;4.284;2022-09-09T03:23:25;16.90;99.90
18998;DHT22;9632;51.018;4.284;2022-09-09T03:25:51;16.90;99.90
18998;DHT22;9632;51.018;4.284;2022-09-09T03:28:18;16.90;99.90
18998;DHT22;9632;51.018;4.284;2022-09-09T03:30:44;16.90;99.90
18998;DHT22;9632;51.018;4.284;2022-09-09T03:33:09;16.90;99.90
18998;DHT22;9632;51.018;4.284;2022-09-09T03:35:35;16.80;99.90
18998;DHT22;9632;51.018;4.284;2022-09-09T03:38:01;16.80;99.90
18998;DHT22;9632;51.018;4.284;2022-09-09T03:40:27;16.80;99.90
18998;DHT22;9632;51.018;4.284;2022-09-09T03:42:53;16.80;99.90
18998;DHT22;9632;51.018;4.284;2022-09-09T03:45:18;16.80;99.90
18998;DHT22;9632;51.018;4.284;2022-09-09T03:47:44;16.80;99.90
18998;DHT22;9632;51.018;4.284;2022-09-09T03:50:10;16.70;99.90
18998;DHT22;9632;51.018;4.284;2022-09-09T03:52:37;16.70;99.90
18998;DHT22;9632;51.018;4.284;2022-09-09T03:55:04;16.70;99.90
18998;DHT22;9632;51.018;4.284;2022-09-09T03:57:29;16.80;99.90
18998;DHT22;9632;51.018;4.284;2022-09-09T03:59:55;16.70;99.90
18998;DHT22;9632;51.018;4.284;2022-09-09T04:02:21;16.80;99.90
18998;DHT22;9632;51.018;4.284;2022-09-09T04:04:47;16.80;99.90
18998;DHT22;9632;51.018;4.284;2022-09-09T04:07:12;16.80;99.90
18998;DHT22;9632;51.018;4.284;2022-09-09T04:09:39;16.80;99.90
18998;DHT22;9632;51.018;4.284;2022-09-09T04:12:05;16.90;99.90
18998;DHT22;9632;51.018;4.284;2022-09-09T04:14:32;16.80;99.90
18998;DHT22;9632;51.018;4.284;2022-09-09T04:16:57;16.80;99.90
18998;DHT22;9632;51.018;4.284;2022-09-09T04:19:24;16.90;99.90
18998;DHT22;9632;51.018;4.284;2022-09-09T04:21:50;16.90;99.90
18998;DHT22;9632;51.018;4.284;2022-09-09T04:24:17;16.80;99.90
18998;DHT22;9632;51.018;4.284;2022-09-09T04:26:43;16.80;99.90
18998;DHT22;9632;51.018;4.284;2022-09-09T04:29:08;16.80;99.90
18998;DHT22;9632;51.018;4.284;2022-09-09T04:31:35;16.70;99.90
18998;DHT22;9632;51.018;4.284;2022-09-09T04:34:01;16.70;99.90
18998;DHT22;9632;51.018;4.284;2022-09-09T04:36:31;16.70;99.90
18998;DHT22;9632;51.018;4.284;2022-09-09T04:38:57;16.80;99.90
18998;DHT22;9632;51.018;4.284;2022-09-09T04:41:23;16.90;99.90
18998;DHT22;9632;51.018;4.284;2022-09-09T04:43:49;16.80;99.90
18998;DHT22;9632;51.018;4.284;2022-09-09T04:46:15;16.80;99.90
18998;DHT22;9632;51.018;4.284;2022-09-09T04:48:43;16.80;99.90
18998;DHT22;9632;51.018;4.284;2022-09-09T04:51:12;16.70;99.90
18998;DHT22;9632;51.018;4.284;2022-09-09T04:53:38;16.70;99.90
18998;DHT22;9632;51.018;4.284;2022-09-09T04:56:09;16.70;99.90
18998;DHT22;9632;51.018;4.284;2022-09-09T04:58:38;16.70;99.90
18998;DHT22;9632;51.018;4.284;2022-09-09T05:01:08;16.70;99.90
18998;DHT22;9632;51.018;4.284;2022-09-09T05:03:34;16.70;99.90
18998;DHT22;9632;51.018;4.284;2022-09-09T05:06:09;16.70;99.90
18998;DHT22;9632;51.018;4.284;2022-09-09T05:08:37;16.70;99.90
18998;DHT22;9632;51.018;4.284;2022-09-09T05:11:24;16.70;99.90
18998;DHT22;9632;51.018;4.284;2022-09-09T05:13:50;16.70;99.90
18998;DHT22;9632;51.018;4.284;2022-09-09T05:16:16;16.70;99.90
18998;DHT22;9632;51.018;4.284;2022-09-09T05:18:42;16.70;99.90
18998;DHT22;9632;51.018;4.284;2022-09-09T05:21:09;16.70;99.90
18998;DHT22;9632;51.018;4.284;2022-09-09T05:23:35;16.70;99.90
18998;DHT22;9632;51.018;4.284;2022-09-09T05:26:01;16.70;99.90
18998;DHT22;9632;51.018;4.284;2022-09-09T05:28:28;16.70;99.90
18998;DHT22;9632;51.018;4.284;2022-09-09T05:31:05;16.70;99.90
18998;DHT22;9632;51.018;4.284;2022-09-09T05:33:34;16.80;99.90
18998;DHT22;9632;51.018;4.284;2022-09-09T05:36:05;16.80;99.90
18998;DHT22;9632;51.018;4.284;2022-09-09T05:41:53;16.80;99.90
18998;DHT22;9632;51.018;4.284;2022-09-09T05:44:19;16.80;99.90
18998;DHT22;9632;51.018;4.284;2022-09-09T05:46:44;16.80;99.90
18998;DHT22;9632;51.018;4.284;2022-09-09T05:49:10;16.80;99.90
18998;DHT22;9632;51.018;4.284;2022-09-09T05:51:35;16.90;99.90
18998;DHT22;9632;51.018;4.284;2022-09-09T05:57:23;16.90;99.90
18998;DHT22;9632;51.018;4.284;2022-09-09T05:59:49;16.80;99.90
18998;DHT22;9632;51.018;4.284;2022-09-09T06:02:15;16.80;99.90
18998;DHT22;9632;51.018;4.284;2022-09-09T06:04:40;16.90;99.90
18998;DHT22;9632;51.018;4.284;2022-09-09T06:07:07;16.90;99.90
18998;DHT22;9632;51.018;4.284;2022-09-09T06:09:32;16.90;99.90
18998;DHT22;9632;51.018;4.284;2022-09-09T06:11:58;16.90;99.90
18998;DHT22;9632;51.018;4.284;2022-09-09T06:14:24;17.00;99.90
18998;DHT22;9632;51.018;4.284;2022-09-09T06:16:51;17.00;99.90
18998;DHT22;9632;51.018;4.284;2022-09-09T06:19:17;17.00;99.90
18998;DHT22;9632;51.018;4.284;2022-09-09T06:21:43;17.00;99.90
18998;DHT22;9632;51.018;4.284;2022-09-09T06:24:10;17.00;99.90
18998;DHT22;9632;51.018;4.284;2022-09-09T06:26:38;17.10;99.90
18998;DHT22;9632;51.018;4.284;2022-09-09T06:29:08;17.00;99.90
18998;DHT22;9632;51.018;4.284;2022-09-09T06:32:02;17.10;99.90
18998;DHT22;9632;51.018;4.284;2022-09-09T06:34:28;17.10;99.90
18998;DHT22;9632;51.018;4.284;2022-09-09T06:36:54;17.10;99.90
18998;DHT22;9632;51.018;4.284;2022-09-09T06:39:40;17.00;99.90
18998;DHT22;9632;51.018;4.284;2022-09-09T06:42:06;17.10;99.90
18998;DHT22;9632;51.018;4.284;2022-09-09T06:44:34;17.20;99.90
18998;DHT22;9632;51.018;4.284;2022-09-09T06:47:18;17.20;99.90
18998;DHT22;9632;51.018;4.284;2022-09-09T06:49:43;17.30;99.90
18998;DHT22;9632;51.018;4.284;2022-09-09T06:52:09;17.30;99.90
18998;DHT22;9632;51.018;4.284;2022-09-09T06:54:35;17.50;99.90
18998;DHT22;9632;51.018;4.284;2022-09-09T06:57:02;17.70;99.90
18998;DHT22;9632;51.018;4.284;2022-09-09T06:59:28;17.70;99.90
18998;DHT22;9632;51.018;4.284;2022-09-09T07:01:56;17.60;99.90
18998;DHT22;9632;51.018;4.284;2022-09-09T07:04:22;17.60;99.90
18998;DHT22;9632;51.018;4.284;2022-09-09T07:06:47;17.70;99.90
18998;DHT22;9632;51.018;4.284;2022-09-09T07:09:15;17.70;99.90
18998;DHT22;9632;51.018;4.284;2022-09-09T07:11:43;17.80;99.90
18998;DHT22;9632;51.018;4.284;2022-09-09T07:14:10;18.00;99.90
18998;DHT22;9632;51.018;4.284;2022-09-09T07:16:40;17.90;99.90
18998;DHT22;9632;51.018;4.284;2022-09-09T07:19:07;17.80;99.90
18998;DHT22;9632;51.018;4.284;2022-09-09T07:21:33;17.70;99.90
18998;DHT22;9632;51.018;4.284;2022-09-09T07:23:59;17.60;99.90
18998;DHT22;9632;51.018;4.284;2022-09-09T07:26:28;17.60;99.90
18998;DHT22;9632;51.018;4.284;2022-09-09T07:28:54;17.70;99.90
18998;DHT22;9632;51.018;4.284;2022-09-09T07:31:27;17.70;99.90
18998;DHT22;9632;51.018;4.284;2022-09-09T07:33:52;17.70;99.90
18998;DHT22;9632;51.018;4.284;2022-09-09T07:36:24;17.80;99.90
18998;DHT22;9632;51.018;4.284;2022-09-09T07:38:53;17.80;99.90
18998;DHT22;9632;51.018;4.284;2022-09-09T07:41:33;17.80;99.90
18998;DHT22;9632;51.018;4.284;2022-09-09T07:44:03;17.80;99.90
18998;DHT22;9632;51.018;4.284;2022-09-09T07:46:29;17.80;99.90
18998;DHT22;9632;51.018;4.284;2022-09-09T07:48:56;17.80;99.90
18998;DHT22;9632;51.018;4.284;2022-09-09T07:51:29;17.90;99.90
18998;DHT22;9632;51.018;4.284;2022-09-09T07:53:58;17.80;99.90
18998;DHT22;9632;51.018;4.284;2022-09-09T07:56:55;17.80;99.90
18998;DHT22;9632;51.018;4.284;2022-09-09T07:59:21;17.70;99.90
18998;DHT22;9632;51.018;4.284;2022-09-09T08:01:49;17.80;99.90
18998;DHT22;9632;51.018;4.284;2022-09-09T08:04:17;17.80;99.90
18998;DHT22;9632;51.018;4.284;2022-09-09T08:07:06;17.70;99.90
18998;DHT22;9632;51.018;4.284;2022-09-09T08:09:31;17.70;99.90
18998;DHT22;9632;51.018;4.284;2022-09-09T08:11:58;17.70;99.90
18998;DHT22;9632;51.018;4.284;2022-09-09T08:14:25;17.90;99.90
18998;DHT22;9632;51.018;4.284;2022-09-09T08:16:51;18.00;99.90
18998;DHT22;9632;51.018;4.284;2022-09-09T08:19:18;17.90;99.90
18998;DHT22;9632;51.018;4.284;2022-09-09T08:21:44;17.90;99.90
18998;DHT22;9632;51.018;4.284;2022-09-09T08:24:11;18.00;99.90
18998;DHT22;9632;51.018;4.284;2022-09-09T08:26:39;18.00;99.90
18998;DHT22;9632;51.018;4.284;2022-09-09T08:29:06;18.00;99.90
18998;DHT22;9632;51.018;4.284;2022-09-09T08:31:35;17.90;99.90
18998;DHT22;9632;51.018;4.284;2022-09-09T08:34:01;17.90;99.90
18998;DHT22;9632;51.018;4.284;2022-09-09T08:43:23;18.10;99.90
18998;DHT22;9632;51.018;4.284;2022-09-09T08:46:11;18.10;99.90
18998;DHT22;9632;51.018;4.284;2022-09-09T08:49:19;18.20;99.90
18998;DHT22;9632;51.018;4.284;2022-09-09T08:51:46;18.20;99.90
18998;DHT22;9632;51.018;4.284;2022-09-09T08:54:13;18.10;99.90
18998;DHT22;9632;51.018;4.284;2022-09-09T08:56:39;18.10;99.90
18998;DHT22;9632;51.018;4.284;2022-09-09T08:59:04;18.00;99.90
18998;DHT22;9632;51.018;4.284;2022-09-09T09:01:44;18.00;99.90
18998;DHT22;9632;51.018;4.284;2022-09-09T09:04:36;17.90;99.90
18998;DHT22;9632;51.018;4.284;2022-09-09T09:07:24;18.00;99.90
18998;DHT22;9632;51.018;4.284;2022-09-09T09:10:15;17.80;99.90
18998;DHT22;9632;51.018;4.284;2022-09-09T09:12:47;17.90;99.90
18998;DHT22;9632;51.018;4.284;2022-09-09T09:15:20;17.90;99.90
18998;DHT22;9632;51.018;4.284;2022-09-09T09:18:10;17.80;99.90
18998;DHT22;9632;51.018;4.284;2022-09-09T09:21:26;17.90;99.90
18998;DHT22;9632;51.018;4.284;2022-09-09T09:24:00;17.90;99.90
18998;DHT22;9632;51.018;4.284;2022-09-09T09:26:31;17.80;99.90
18998;DHT22;9632;51.018;4.284;2022-09-09T09:28:58;17.80;99.90
18998;DHT22;9632;51.018;4.284;2022-09-09T09:31:25;17.80;99.90
18998;DHT22;9632;51.018;4.284;2022-09-09T09:33:56;17.70;99.90
18998;DHT22;9632;51.018;4.284;2022-09-09T09:36:37;17.70;99.90
18998;DHT22;9632;51.018;4.284;2022-09-09T09:39:04;17.70;99.90
18998;DHT22;9632;51.018;4.284;2022-09-09T09:41:38;17.70;99.90
18998;DHT22;9632;51.018;4.284;2022-09-09T09:44:18;17.80;99.90
18998;DHT22;9632;51.018;4.284;2022-09-09T09:46:46;18.00;99.90
18998;DHT22;9632;51.018;4.284;2022-09-09T09:49:12;17.90;99.90
18998;DHT22;9632;51.018;4.284;2022-09-09T09:51:39;18.00;99.90
18998;DHT22;9632;51.018;4.284;2022-09-09T09:56:35;18.10;99.90
18998;DHT22;9632;51.018;4.284;2022-09-09T09:59:00;18.20;99.90
18998;DHT22;9632;51.018;4.284;2022-09-09T10:01:32;18.20;99.90
18998;DHT22;9632;51.018;4.284;2022-09-09T10:04:13;18.20;99.90
18998;DHT22;9632;51.018;4.284;2022-09-09T10:06:40;18.30;99.90
18998;DHT22;9632;51.018;4.284;2022-09-09T10:09:26;18.30;99.90
18998;DHT22;9632;51.018;4.284;2022-09-09T10:19:58;18.40;99.90
18998;DHT22;9632;51.018;4.284;2022-09-09T10:22:47;18.40;99.90
18998;DHT22;9632;51.018;4.284;2022-09-09T10:36:21;18.90;99.90
18998;DHT22;9632;51.018;4.284;2022-09-09T10:39:15;19.00;99.90
18998;DHT22;9632;51.018;4.284;2022-09-09T10:55:16;18.70;99.90
18998;DHT22;9632;51.018;4.284;2022-09-09T10:57:51;18.90;99.90
18998;DHT22;9632;51.018;4.284;2022-09-09T11:00:37;18.90;99.90
18998;DHT22;9632;51.018;4.284;2022-09-09T11:03:04;18.90;99.90
18998;DHT22;9632;51.018;4.284;2022-09-09T11:11:03;19.00;99.90
18998;DHT22;9632;51.018;4.284;2022-09-09T11:16:31;19.10;99.90
18998;DHT22;9632;51.018;4.284;2022-09-09T11:25:25;19.40;99.90
18998;DHT22;9632;51.018;4.284;2022-09-09T11:38:56;19.70;99.90
18998;DHT22;9632;51.018;4.284;2022-09-09T11:41:34;19.60;99.90
18998;DHT22;9632;51.018;4.284;2022-09-09T11:44:00;19.70;99.90
18998;DHT22;9632;51.018;4.284;2022-09-09T11:46:37;19.80;99.90
18998;DHT22;9632;51.018;4.284;2022-09-09T11:49:05;19.80;99.90
18998;DHT22;9632;51.018;4.284;2022-09-09T11:51:33;19.90;99.90
18998;DHT22;9632;51.018;4.284;2022-09-09T11:54:32;19.90;99.90
18998;DHT22;9632;51.018;4.284;2022-09-09T11:56:59;20.00;99.90
18998;DHT22;9632;51.018;4.284;2022-09-09T11:59:31;20.00;99.90
18998;DHT22;9632;51.018;4.284;2022-09-09T12:02:12;20.10;99.90
18998;DHT22;9632;51.018;4.284;2022-09-09T12:04:54;20.10;99.90
18998;DHT22;9632;51.018;4.284;2022-09-09T12:10:23;20.10;99.90
18998;DHT22;9632;51.018;4.284;2022-09-09T12:12:50;20.00;99.90
18998;DHT22;9632;51.018;4.284;2022-09-09T12:15:19;20.00;99.90
18998;DHT22;9632;51.018;4.284;2022-09-09T12:17:57;20.10;99.90
18998;DHT22;9632;51.018;4.284;2022-09-09T12:20:37;20.30;99.90
18998;DHT22;9632;51.018;4.284;2022-09-09T12:23:24;20.30;99.90
18998;DHT22;9632;51.018;4.284;2022-09-09T12:26:03;20.50;99.90
18998;DHT22;9632;51.018;4.284;2022-09-09T12:34:09;20.60;99.90
18998;DHT22;9632;51.018;4.284;2022-09-09T12:36:35;20.60;99.90
18998;DHT22;9632;51.018;4.284;2022-09-09T12:39:15;20.60;99.90
18998;DHT22;9632;51.018;4.284;2022-09-09T12:41:52;20.60;99.90
18998;DHT22;9632;51.018;4.284;2022-09-09T12:44:24;20.60;99.90
18998;DHT22;9632;51.018;4.284;2022-09-09T12:46:51;20.60;99.90
18998;DHT22;9632;51.018;4.284;2022-09-09T12:49:27;20.70;99.90
18998;DHT22;9632;51.018;4.284;2022-09-09T12:51:53;20.80;99.90
18998;DHT22;9632;51.018;4.284;2022-09-09T12:54:20;20.80;99.90
18998;DHT22;9632;51.018;4.284;2022-09-09T12:56:48;20.90;99.90
18998;DHT22;9632;51.018;4.284;2022-09-09T12:59:34;21.00;99.90
18998;DHT22;9632;51.018;4.284;2022-09-09T13:02:00;21.00;99.90
18998;DHT22;9632;51.018;4.284;2022-09-09T13:04:26;21.10;99.90
18998;DHT22;9632;51.018;4.284;2022-09-09T13:06:52;21.10;99.90
18998;DHT22;9632;51.018;4.284;2022-09-09T13:09:18;21.20;99.90
18998;DHT22;9632;51.018;4.284;2022-09-09T13:11:53;21.20;99.90
18998;DHT22;9632;51.018;4.284;2022-09-09T13:14:35;21.10;99.90
18998;DHT22;9632;51.018;4.284;2022-09-09T13:17:04;21.00;99.90
18998;DHT22;9632;51.018;4.284;2022-09-09T13:19:37;21.00;99.90
18998;DHT22;9632;51.018;4.284;2022-09-09T13:27:39;21.10;99.90
18998;DHT22;9632;51.018;4.284;2022-09-09T13:30:22;21.20;99.90
18998;DHT22;9632;51.018;4.284;2022-09-09T13:33:21;21.30;99.90
18998;DHT22;9632;51.018;4.284;2022-09-09T13:35:49;21.30;99.90
18998;DHT22;9632;51.018;4.284;2022-09-09T13:38:16;21.40;99.90
18998;DHT22;9632;51.018;4.284;2022-09-09T13:40:53;21.30;99.90
18998;DHT22;9632;51.018;4.284;2022-09-09T13:43:22;21.40;99.90
18998;DHT22;9632;51.018;4.284;2022-09-09T13:49:01;21.50;99.90
18998;DHT22;9632;51.018;4.284;2022-09-09T13:51:38;21.60;99.90
18998;DHT22;9632;51.018;4.284;2022-09-09T13:54:05;21.60;99.90
18998;DHT22;9632;51.018;4.284;2022-09-09T13:56:33;21.60;99.90
18998;DHT22;9632;51.018;4.284;2022-09-09T13:58:59;21.70;99.90
18998;DHT22;9632;51.018;4.284;2022-09-09T14:01:24;21.60;99.90
18998;DHT22;9632;51.018;4.284;2022-09-09T14:03:50;21.70;99.90
18998;DHT22;9632;51.018;4.284;2022-09-09T14:06:16;21.60;99.90
18998;DHT22;9632;51.018;4.284;2022-09-09T14:08:44;21.60;99.90
18998;DHT22;9632;51.018;4.284;2022-09-09T14:11:12;21.60;99.90
18998;DHT22;9632;51.018;4.284;2022-09-09T14:13:38;21.60;99.90
18998;DHT22;9632;51.018;4.284;2022-09-09T14:16:05;21.60;99.90
18998;DHT22;9632;51.018;4.284;2022-09-09T14:18:30;21.50;99.90
18998;DHT22;9632;51.018;4.284;2022-09-09T14:20:56;21.40;99.90
18998;DHT22;9632;51.018;4.284;2022-09-09T14:23:26;21.50;99.90
18998;DHT22;9632;51.018;4.284;2022-09-09T14:25:51;21.60;99.90
18998;DHT22;9632;51.018;4.284;2022-09-09T14:28:17;21.70;99.90
18998;DHT22;9632;51.018;4.284;2022-09-09T14:30:43;21.70;99.90
18998;DHT22;9632;51.018;4.284;2022-09-09T14:33:11;21.70;99.90
18998;DHT22;9632;51.018;4.284;2022-09-09T14:35:38;21.80;99.90
18998;DHT22;9632;51.018;4.284;2022-09-09T14:38:04;21.80;99.90
18998;DHT22;9632;51.018;4.284;2022-09-09T14:43:53;21.80;99.90
18998;DHT22;9632;51.018;4.284;2022-09-09T14:46:47;21.90;99.90
18998;DHT22;9632;51.018;4.284;2022-09-09T14:49:15;21.90;99.90
18998;DHT22;9632;51.018;4.284;2022-09-09T14:51:41;21.90;99.90
18998;DHT22;9632;51.018;4.284;2022-09-09T14:57:13;21.70;99.90
18998;DHT22;9632;51.018;4.284;2022-09-09T14:59:39;21.70;99.90
18998;DHT22;9632;51.018;4.284;2022-09-09T15:02:05;21.80;99.90
18998;DHT22;9632;51.018;4.284;2022-09-09T15:04:31;21.80;99.90
18998;DHT22;9632;51.018;4.284;2022-09-09T15:06:56;21.80;99.90
18998;DHT22;9632;51.018;4.284;2022-09-09T15:09:22;21.80;99.90
18998;DHT22;9632;51.018;4.284;2022-09-09T15:11:48;21.70;99.90
18998;DHT22;9632;51.018;4.284;2022-09-09T15:14:14;21.70;99.90
18998;DHT22;9632;51.018;4.284;2022-09-09T15:16:40;21.60;99.90
18998;DHT22;9632;51.018;4.284;2022-09-09T15:19:06;21.50;99.90
18998;DHT22;9632;51.018;4.284;2022-09-09T15:21:34;21.40;99.90
18998;DHT22;9632;51.018;4.284;2022-09-09T15:24:00;21.20;99.90
18998;DHT22;9632;51.018;4.284;2022-09-09T15:26:27;21.10;99.90
18998;DHT22;9632;51.018;4.284;2022-09-09T15:28:53;20.90;99.90
18998;DHT22;9632;51.018;4.284;2022-09-09T15:31:25;20.80;99.90
18998;DHT22;9632;51.018;4.284;2022-09-09T15:33:53;20.70;99.90
18998;DHT22;9632;51.018;4.284;2022-09-09T15:36:27;20.70;99.90
18998;DHT22;9632;51.018;4.284;2022-09-09T15:38:54;20.70;99.90
18998;DHT22;9632;51.018;4.284;2022-09-09T15:41:21;20.70;99.90
18998;DHT22;9632;51.018;4.284;2022-09-09T15:43:49;20.70;99.90
18998;DHT22;9632;51.018;4.284;2022-09-09T15:46:28;20.70;99.90
18998;DHT22;9632;51.018;4.284;2022-09-09T15:48:55;20.70;99.90
18998;DHT22;9632;51.018;4.284;2022-09-09T15:51:22;20.60;99.90
18998;DHT22;9632;51.018;4.284;2022-09-09T15:53:51;20.60;99.90
18998;DHT22;9632;51.018;4.284;2022-09-09T15:56:19;20.60;99.90
18998;DHT22;9632;51.018;4.284;2022-09-09T15:58:44;20.60;99.90
18998;DHT22;9632;51.018;4.284;2022-09-09T16:01:11;20.60;99.90
18998;DHT22;9632;51.018;4.284;2022-09-09T16:03:42;20.60;99.90
18998;DHT22;9632;51.018;4.284;2022-09-09T16:06:15;20.60;99.90
18998;DHT22;9632;51.018;4.284;2022-09-09T16:08:43;20.60;99.90
18998;DHT22;9632;51.018;4.284;2022-09-09T16:11:12;20.50;99.90
18998;DHT22;9632;51.018;4.284;2022-09-09T16:13:41;20.50;99.90
18998;DHT22;9632;51.018;4.284;2022-09-09T16:16:08;20.60;99.90
18998;DHT22;9632;51.018;4.284;2022-09-09T16:18:39;20.60;99.90
18998;DHT22;9632;51.018;4.284;2022-09-09T16:21:05;20.60;99.90
18998;DHT22;9632;51.018;4.284;2022-09-09T16:23:35;20.60;99.90
18998;DHT22;9632;51.018;4.284;2022-09-09T16:26:02;20.60;99.90
18998;DHT22;9632;51.018;4.284;2022-09-09T16:28:28;20.50;99.90
18998;DHT22;9632;51.018;4.284;2022-09-09T16:30:54;20.50;99.90
18998;DHT22;9632;51.018;4.284;2022-09-09T16:33:19;20.40;99.90
18998;DHT22;9632;51.018;4.284;2022-09-09T16:35:45;20.40;99.90
18998;DHT22;9632;51.018;4.284;2022-09-09T16:38:11;20.30;99.90
18998;DHT22;9632;51.018;4.284;2022-09-09T16:40:38;20.30;99.90
18998;DHT22;9632;51.018;4.284;2022-09-09T16:43:04;20.30;99.90
18998;DHT22;9632;51.018;4.284;2022-09-09T16:45:31;20.30;99.90
18998;DHT22;9632;51.018;4.284;2022-09-09T16:47:58;20.30;99.90
18998;DHT22;9632;51.018;4.284;2022-09-09T16:50:24;20.20;99.90
18998;DHT22;9632;51.018;4.284;2022-09-09T16:52:51;20.20;99.90
18998;DHT22;9632;51.018;4.284;2022-09-09T16:55:17;20.10;99.90
18998;DHT22;9632;51.018;4.284;2022-09-09T16:57:46;20.10;99.90
18998;DHT22;9632;51.018;4.284;2022-09-09T17:00:14;20.00;99.90
18998;DHT22;9632;51.018;4.284;2022-09-09T17:02:42;20.00;99.90
18998;DHT22;9632;51.018;4.284;2022-09-09T17:05:08;20.00;99.90
18998;DHT22;9632;51.018;4.284;2022-09-09T17:07:34;20.00;99.90
18998;DHT22;9632;51.018;4.284;2022-09-09T17:10:01;20.00;99.90
18998;DHT22;9632;51.018;4.284;2022-09-09T17:12:26;20.00;99.90
18998;DHT22;9632;51.018;4.284;2022-09-09T17:14:52;20.00;99.90
18998;DHT22;9632;51.018;4.284;2022-09-09T17:17:18;20.10;99.90
18998;DHT22;9632;51.018;4.284;2022-09-09T17:19:43;20.00;99.90
18998;DHT22;9632;51.018;4.284;2022-09-09T17:22:09;20.00;99.90
18998;DHT22;9632;51.018;4.284;2022-09-09T17:24:35;20.00;99.90
18998;DHT22;9632;51.018;4.284;2022-09-09T17:27:03;20.00;99.90
18998;DHT22;9632;51.018;4.284;2022-09-09T17:29:29;20.00;99.90
18998;DHT22;9632;51.018;4.284;2022-09-09T17:31:55;20.00;99.90
18998;DHT22;9632;51.018;4.284;2022-09-09T17:34:20;20.00;99.90
18998;DHT22;9632;51.018;4.284;2022-09-09T17:36:46;19.90;99.90
18998;DHT22;9632;51.018;4.284;2022-09-09T17:39:12;19.90;99.90
18998;DHT22;9632;51.018;4.284;2022-09-09T17:41:39;19.90;99.90
18998;DHT22;9632;51.018;4.284;2022-09-09T17:44:06;19.90;99.90
18998;DHT22;9632;51.018;4.284;2022-09-09T17:46:40;19.80;99.90
18998;DHT22;9632;51.018;4.284;2022-09-09T17:49:08;19.80;99.90
18998;DHT22;9632;51.018;4.284;2022-09-09T17:51:35;19.80;99.90
18998;DHT22;9632;51.018;4.284;2022-09-09T17:54:07;19.80;99.90
18998;DHT22;9632;51.018;4.284;2022-09-09T17:56:33;19.80;99.90
18998;DHT22;9632;51.018;4.284;2022-09-09T17:59:00;19.70;99.90
18998;DHT22;9632;51.018;4.284;2022-09-09T18:01:29;19.70;99.90
18998;DHT22;9632;51.018;4.284;2022-09-09T18:03:56;19.70;99.90
18998;DHT22;9632;51.018;4.284;2022-09-09T18:06:25;19.70;99.90
18998;DHT22;9632;51.018;4.284;2022-09-09T18:08:57;19.60;99.90
18998;DHT22;9632;51.018;4.284;2022-09-09T18:11:28;19.70;99.90
18998;DHT22;9632;51.018;4.284;2022-09-09T18:13:57;19.70;99.90
18998;DHT22;9632;51.018;4.284;2022-09-09T18:16:23;19.70;99.90
18998;DHT22;9632;51.018;4.284;2022-09-09T18:18:50;19.70;99.90
18998;DHT22;9632;51.018;4.284;2022-09-09T18:21:17;19.60;99.90
18998;DHT22;9632;51.018;4.284;2022-09-09T18:23:44;19.60;99.90
18998;DHT22;9632;51.018;4.284;2022-09-09T18:26:21;19.50;99.90
18998;DHT22;9632;51.018;4.284;2022-09-09T18:28:54;19.50;99.90